Time;durP1;ratioP1;P1;durP2;ratioP2;P2;SDS_P1;SDS_P2;PMS_P1;PMS_P2;Temp;Humidity;BMP_temperature;BMP_pressure;BME280_temperature;BME280_humidity;BME280_pressure;Samples;Min_cycle;Max_cycle;Signal;HPM_P1;HPM_P2
2023/08/06 00:01:34;;;;;;;1.20;1.20;;;;;;;24.07;63.79;96715.28;5060028;28;20200;-27
2023/08/06 00:04:01;;;;;;;1.07;1.07;;;;;;;24.09;63.51;96710.16;5057287;28;20617;-27
2023/08/06 00:06:27;;;;;;;1.10;1.10;;;;;;;24.06;63.73;96703.31;5066559;28;20220;-27
2023/08/06 00:08:54;;;;;;;1.30;1.20;;;;;;;24.10;63.47;96704.19;5057916;28;20228;-27
2023/08/06 00:11:21;;;;;;;1.30;1.23;;;;;;;24.04;63.53;96688.75;5054920;28;20632;-27
2023/08/06 00:13:48;;;;;;;1.50;1.40;;;;;;;24.09;63.28;96693.06;5059438;28;20645;-27
2023/08/06 00:16:14;;;;;;;1.10;1.10;;;;;;;24.08;63.53;96701.59;5058471;28;20716;-27
2023/08/06 00:18:41;;;;;;;1.27;1.27;;;;;;;24.09;63.29;96699.88;5053718;28;20220;-27
2023/08/06 00:21:07;;;;;;;1.30;1.30;;;;;;;24.09;63.29;96700.75;5061991;28;20208;-27
2023/08/06 00:23:34;;;;;;;1.20;1.20;;;;;;;24.11;63.49;96703.31;5054021;28;20200;-27
2023/08/06 00:26:01;;;;;;;1.20;1.20;;;;;;;24.10;63.54;96709.31;5062056;28;20274;-27
2023/08/06 00:28:27;;;;;;;1.13;1.13;;;;;;;24.09;63.48;96705.00;5062583;28;20220;-29
2023/08/06 00:30:57;;;;;;;1.20;1.20;;;;;;;24.07;63.49;96694.75;5053930;28;20205;-27
2023/08/06 00:33:23;;;;;;;1.40;1.30;;;;;;;24.10;63.22;96711.88;5057458;28;20291;-27
2023/08/06 00:35:50;;;;;;;1.27;1.27;;;;;;;24.11;63.52;96705.91;5059453;28;20274;-27
2023/08/06 00:38:17;;;;;;;1.10;1.10;;;;;;;24.10;63.17;96701.63;5058058;28;20286;-27
2023/08/06 00:40:43;;;;;;;1.10;1.10;;;;;;;24.09;63.34;96702.44;5059858;28;20559;-27
2023/08/06 00:43:10;;;;;;;1.20;1.20;;;;;;;24.10;63.19;96712.72;5070664;22;20278;-24
2023/08/06 00:45:37;;;;;;;1.13;1.13;;;;;;;24.08;63.38;96711.00;5052610;28;20216;-23
2023/08/06 00:48:04;;;;;;;1.00;1.00;;;;;;;24.09;63.77;96708.44;5038055;28;20209;-37
2023/08/06 00:50:31;;;;;;;1.43;1.33;;;;;;;24.09;63.02;96708.44;5026969;28;20295;-23
2023/08/06 00:52:57;;;;;;;1.10;1.10;;;;;;;24.08;63.52;96709.31;5044163;28;20311;-23
2023/08/06 00:55:24;;;;;;;1.57;1.47;;;;;;;24.09;63.24;96718.72;5017405;28;20201;-28
2023/08/06 00:57:52;;;;;;;1.20;1.20;;;;;;;24.08;63.38;96716.16;5043805;28;20271;-27
2023/08/06 01:00:19;;;;;;;1.17;1.17;;;;;;;24.07;63.55;96712.72;5025099;28;20209;-26
2023/08/06 01:02:46;;;;;;;1.10;1.10;;;;;;;24.07;63.38;96711.88;5039067;28;20282;-23
2023/08/06 01:05:13;;;;;;;1.40;1.30;;;;;;;24.06;63.54;96713.56;5033995;28;20221;-23
2023/08/06 01:08:04;;;;;;;1.70;1.30;;;;;;;24.07;63.54;96705.00;5047321;28;20202;-23
2023/08/06 01:10:57;;;;;;;1.50;1.40;;;;;;;24.03;63.29;96700.72;5047006;28;20201;-30
2023/08/06 01:13:28;;;;;;;1.10;1.10;;;;;;;24.07;63.37;96699.88;5031655;28;20213;-25
2023/08/06 01:15:57;;;;;;;1.30;1.20;;;;;;;24.07;63.49;96702.44;5033024;28;20201;-30
2023/08/06 01:18:23;;;;;;;1.30;1.20;;;;;;;24.07;63.48;96701.59;5050432;28;20232;-23
2023/08/06 01:20:50;;;;;;;1.20;1.20;;;;;;;24.07;63.39;96709.31;5047299;28;20251;-26
2023/08/06 01:23:16;;;;;;;1.30;1.30;;;;;;;24.07;63.45;96699.03;5043266;28;20372;-23
2023/08/06 01:25:49;;;;;;;1.20;1.20;;;;;;;24.07;63.15;96701.59;5033228;28;20659;-23
2023/08/06 01:28:19;;;;;;;1.20;1.20;;;;;;;24.03;63.35;96697.28;5028696;28;20586;-28
2023/08/06 01:30:45;;;;;;;1.20;1.20;;;;;;;23.94;63.61;96684.34;5027842;28;20232;-23
2023/08/06 01:33:15;;;;;;;1.30;1.20;;;;;;;23.93;63.28;96680.06;5023629;28;20283;-23
2023/08/06 01:35:42;;;;;;;1.20;1.20;;;;;;;24.03;63.43;96694.72;5010058;28;20200;-23
2023/08/06 01:38:08;;;;;;;1.53;1.43;;;;;;;24.07;63.61;96699.88;5012517;28;20744;-24
2023/08/06 01:40:35;;;;;;;1.40;1.30;;;;;;;24.08;63.68;96699.03;5034112;28;20292;-24
2023/08/06 01:43:01;;;;;;;1.20;1.20;;;;;;;24.09;63.54;96702.44;5051553;28;20252;-23
2023/08/06 01:45:28;;;;;;;1.10;1.10;;;;;;;24.09;63.55;96699.88;5046690;28;20718;-23
2023/08/06 01:47:54;;;;;;;1.27;1.17;;;;;;;24.08;63.32;96699.03;5051606;28;20197;-27
2023/08/06 01:50:21;;;;;;;1.33;1.30;;;;;;;24.08;63.42;96701.59;5049523;28;20205;-28
2023/08/06 01:52:48;;;;;;;1.30;1.20;;;;;;;24.08;63.55;96693.91;5051748;28;20266;-23
2023/08/06 01:55:14;;;;;;;1.10;1.10;;;;;;;24.08;63.25;96698.19;5046419;28;20753;-23
2023/08/06 01:57:41;;;;;;;1.20;1.20;;;;;;;24.08;63.45;96691.34;5051393;28;20258;-23
2023/08/06 02:00:08;;;;;;;1.37;1.27;;;;;;;24.08;63.21;96686.22;5050910;28;20414;-26
2023/08/06 02:02:34;;;;;;;1.50;1.20;;;;;;;24.09;63.24;96684.47;5044606;28;20224;-23
2023/08/06 02:05:01;;;;;;;1.40;1.30;;;;;;;24.08;63.22;96681.06;5050655;28;20208;-23
2023/08/06 02:07:27;;;;;;;1.17;1.17;;;;;;;24.09;63.52;96687.91;5037811;28;20262;-27
2023/08/06 02:09:54;;;;;;;1.17;1.17;;;;;;;24.08;63.02;96673.38;5040541;28;20205;-24
2023/08/06 02:12:20;;;;;;;1.30;1.20;;;;;;;24.08;63.54;96670.81;5049183;28;20266;-28
2023/08/06 02:14:47;;;;;;;1.33;1.30;;;;;;;24.09;63.30;96674.22;5045399;28;20284;-23
2023/08/06 02:17:13;;;;;;;1.30;1.20;;;;;;;24.10;63.17;96675.94;5051054;28;20262;-30
2023/08/06 02:19:40;;;;;;;1.23;1.20;;;;;;;24.09;63.47;96672.50;5049449;28;20193;-25
2023/08/06 02:22:07;;;;;;;1.10;1.10;;;;;;;24.09;63.58;96669.94;5051445;28;20213;-23
2023/08/06 02:24:33;;;;;;;1.03;1.03;;;;;;;24.09;63.19;96662.25;5035064;28;20202;-23
2023/08/06 02:27:00;;;;;;;1.10;1.10;;;;;;;24.08;63.36;96660.53;5051175;28;20294;-23
2023/08/06 02:29:26;;;;;;;1.20;1.20;;;;;;;24.09;63.23;96663.94;5048758;28;20201;-24
2023/08/06 02:31:53;;;;;;;1.20;1.20;;;;;;;24.08;63.51;96667.38;5049326;28;20627;-23
2023/08/06 02:34:20;;;;;;;1.10;1.10;;;;;;;24.08;63.27;96663.09;5051059;28;20220;-28
2023/08/06 02:36:47;;;;;;;1.20;1.20;;;;;;;24.08;63.40;96662.25;5049621;28;20663;-24
2023/08/06 02:39:13;;;;;;;1.20;1.20;;;;;;;24.07;63.54;96665.66;5044179;28;20292;-24
2023/08/06 02:41:40;;;;;;;1.30;1.30;;;;;;;24.07;63.23;96663.09;5055336;28;20201;-23
2023/08/06 02:44:06;;;;;;;1.30;1.30;;;;;;;24.07;63.52;96657.97;5047869;28;20334;-39
2023/08/06 02:46:33;;;;;;;1.10;1.10;;;;;;;24.06;63.46;96651.09;5048983;28;20374;-23
2023/08/06 02:48:59;;;;;;;1.20;1.20;;;;;;;24.06;63.30;96651.09;5054723;28;20286;-24
2023/08/06 02:51:26;;;;;;;1.40;1.30;;;;;;;24.05;63.27;96645.13;5046696;28;20235;-23
2023/08/06 02:53:53;;;;;;;1.30;1.30;;;;;;;24.06;63.29;96648.53;5044863;28;20225;-23
2023/08/06 02:56:19;;;;;;;1.03;1.03;;;;;;;24.00;63.38;96635.66;5053992;28;20643;-23
2023/08/06 02:58:46;;;;;;;1.13;1.13;;;;;;;24.07;63.60;96651.09;5051255;28;20274;-32
2023/08/06 03:01:12;;;;;;;1.10;1.10;;;;;;;24.07;63.16;96648.53;5038902;28;20201;-46
2023/08/06 03:03:39;;;;;;;1.03;1.03;;;;;;;24.07;63.48;96633.13;5049308;28;20219;-23
2023/08/06 03:06:05;;;;;;;1.20;1.20;;;;;;;24.06;63.16;96621.16;5050302;28;20315;-32
2023/08/06 03:08:32;;;;;;;1.30;1.20;;;;;;;24.07;63.56;96622.03;5052893;28;20617;-27
2023/08/06 03:10:59;;;;;;;1.07;1.07;;;;;;;24.07;63.32;96633.13;5045259;28;20201;-23
2023/08/06 03:13:25;;;;;;;1.20;1.20;;;;;;;24.07;63.24;96624.59;5052855;28;20262;-23
2023/08/06 03:15:55;;;;;;;1.27;1.20;;;;;;;24.07;63.20;96620.28;5048357;28;20197;-23
2023/08/06 03:18:22;;;;;;;1.07;1.07;;;;;;;24.07;63.22;96615.16;5050050;28;20611;-23
2023/08/06 03:20:49;;;;;;;1.20;1.20;;;;;;;24.08;63.60;96605.75;5048819;28;20548;-27
2023/08/06 03:23:15;;;;;;;1.10;1.10;;;;;;;24.07;63.65;96599.75;5040705;28;20712;-24
2023/08/06 03:25:42;;;;;;;1.17;1.17;;;;;;;24.07;63.54;96596.34;5054556;28;20262;-23
2023/08/06 03:28:08;;;;;;;1.10;1.10;;;;;;;24.07;63.23;96597.19;5042608;28;20202;-23
2023/08/06 03:30:35;;;;;;;1.20;1.20;;;;;;;24.07;63.49;96601.50;5050877;28;21322;-28
2023/08/06 03:33:01;;;;;;;1.17;1.17;;;;;;;24.08;63.29;96610.91;5048939;28;20232;-24
2023/08/06 03:35:28;;;;;;;1.20;1.20;;;;;;;24.07;63.60;96614.31;5043840;28;20208;-23
2023/08/06 03:37:55;;;;;;;1.20;1.20;;;;;;;24.07;63.24;96622.88;5053532;28;20445;-23
2023/08/06 03:40:21;;;;;;;1.17;1.17;;;;;;;24.08;63.68;96623.72;5049462;28;20702;-27
2023/08/06 03:42:48;;;;;;;1.20;1.20;;;;;;;24.07;63.49;96616.91;5053822;28;20235;-23
2023/08/06 03:45:14;;;;;;;1.40;1.30;;;;;;;24.07;63.62;96606.63;5049115;28;20667;-23
2023/08/06 03:47:41;;;;;;;1.10;1.10;;;;;;;24.07;63.25;96599.75;5038781;28;20285;-24
2023/08/06 03:50:08;;;;;;;1.00;1.00;;;;;;;24.07;63.36;96614.31;5048035;28;20293;-31
2023/08/06 03:52:34;;;;;;;1.33;1.23;;;;;;;24.06;63.61;96605.75;5050876;28;20307;-23
2023/08/06 03:55:01;;;;;;;1.27;1.27;;;;;;;24.08;63.55;96605.75;5048283;28;20200;-24
2023/08/06 03:57:27;;;;;;;1.00;1.00;;;;;;;24.07;63.28;96609.19;5032370;28;20201;-23
2023/08/06 03:59:54;;;;;;;1.20;1.20;;;;;;;24.08;63.19;96598.06;5047651;28;20668;-28
2023/08/06 04:02:21;;;;;;;1.03;1.03;;;;;;;24.08;63.32;96600.63;5043941;28;20307;-36
2023/08/06 04:04:48;;;;;;;1.00;1.00;;;;;;;24.08;63.54;96598.06;5051995;28;20283;-23
2023/08/06 04:07:14;;;;;;;1.00;1.00;;;;;;;24.07;63.22;96597.19;5053415;28;20307;-25
2023/08/06 04:10:08;;;;;;;1.30;1.20;;;;;;;24.07;63.49;96589.50;5048894;28;20208;-23
2023/08/06 04:12:37;;;;;;;1.10;1.10;;;;;;;24.08;63.53;96596.38;5038006;28;20248;-29
2023/08/06 04:15:05;;;;;;;1.17;1.17;;;;;;;24.08;63.17;96596.38;5051503;28;20201;-23
2023/08/06 04:17:31;;;;;;;1.30;1.20;;;;;;;24.07;63.18;96592.06;5051697;28;20197;-23
2023/08/06 04:19:58;;;;;;;1.23;1.13;;;;;;;24.08;63.53;96606.63;5052420;28;20212;-23
2023/08/06 04:22:25;;;;;;;1.10;1.10;;;;;;;24.07;63.48;96602.31;5047206;28;20286;-26
2023/08/06 04:24:52;;;;;;;1.03;1.03;;;;;;;24.07;63.46;96610.03;5052931;28;20701;-24
2023/08/06 04:27:19;;;;;;;1.10;1.10;;;;;;;24.07;63.28;96604.91;5053266;28;20217;-23
2023/08/06 04:29:45;;;;;;;1.30;1.20;;;;;;;24.07;63.31;96606.63;5051971;28;20251;-30
2023/08/06 04:32:13;;;;;;;1.37;1.30;;;;;;;24.07;63.53;96602.31;5041909;28;20235;-23
2023/08/06 04:34:39;;;;;;;1.40;1.30;;;;;;;24.08;63.48;96598.06;5049413;28;20286;-24
2023/08/06 04:37:06;;;;;;;1.10;1.10;;;;;;;24.07;63.21;96597.19;5049447;28;20259;-23
2023/08/06 04:39:32;;;;;;;1.13;1.13;;;;;;;24.07;63.09;96594.63;5053181;28;20255;-23
2023/08/06 04:41:59;;;;;;;1.10;1.10;;;;;;;24.07;63.22;96607.47;5044592;28;20291;-23
2023/08/06 04:44:25;;;;;;;1.07;1.07;;;;;;;24.07;63.32;96597.19;5045466;28;20213;-25
2023/08/06 04:46:52;;;;;;;1.17;1.17;;;;;;;24.08;63.27;96601.50;5047844;28;20225;-23
2023/08/06 04:49:21;;;;;;;1.20;1.20;;;;;;;24.09;63.36;96600.63;5045246;28;20254;-23
2023/08/06 04:51:48;;;;;;;1.33;1.23;;;;;;;24.08;63.13;96596.38;5047212;28;20247;-32
2023/08/06 04:54:15;;;;;;;1.40;1.30;;;;;;;24.08;63.20;96613.47;5048853;28;20221;-25
2023/08/06 04:56:41;;;;;;;2.00;1.20;;;;;;;24.08;63.43;96618.59;5045764;28;20284;-23
2023/08/06 04:59:08;;;;;;;1.13;1.10;;;;;;;24.08;63.30;96621.16;5026512;28;20281;-23
2023/08/06 05:01:34;;;;;;;0.90;0.90;;;;;;;24.07;63.60;96622.03;5050477;28;20235;-28
2023/08/06 05:04:01;;;;;;;1.17;1.17;;;;;;;24.07;63.30;96615.16;5046616;28;20698;-23
2023/08/06 05:06:29;;;;;;;1.03;1.03;;;;;;;24.07;63.01;96610.03;5041135;28;20294;-32
2023/08/06 05:08:55;;;;;;;1.10;1.10;;;;;;;24.08;63.29;96621.16;5050914;28;20280;-23
2023/08/06 05:11:22;;;;;;;1.10;1.10;;;;;;;24.08;63.33;96610.91;5052814;28;20197;-23
2023/08/06 05:13:48;;;;;;;1.20;1.20;;;;;;;24.07;63.30;96606.63;5052282;28;20259;-23
2023/08/06 05:16:15;;;;;;;1.00;1.00;;;;;;;24.08;63.36;96601.50;5034469;28;20632;-24
2023/08/06 05:18:42;;;;;;;1.20;1.20;;;;;;;24.06;63.54;96600.63;5050723;28;20208;-25
2023/08/06 05:21:08;;;;;;;1.10;1.10;;;;;;;24.08;63.43;96604.06;5047265;28;20623;-23
2023/08/06 05:23:35;;;;;;;1.00;1.00;;;;;;;24.07;63.50;96604.06;5047268;28;20253;-23
2023/08/06 05:26:02;;;;;;;1.13;1.13;;;;;;;24.08;63.15;96604.06;5051666;28;20291;-23
2023/08/06 05:28:28;;;;;;;1.20;1.20;;;;;;;24.07;63.18;96611.75;5052118;28;20201;-24
2023/08/06 05:30:55;;;;;;;1.10;1.10;;;;;;;24.07;63.33;96604.91;5051066;28;20239;-23
2023/08/06 05:33:21;;;;;;;1.10;1.10;;;;;;;24.07;63.88;96604.91;5039554;28;20742;-23
2023/08/06 05:35:49;;;;;;;1.10;1.10;;;;;;;24.08;63.52;96605.75;5050091;28;20688;-26
2023/08/06 05:38:17;;;;;;;1.10;1.10;;;;;;;24.07;63.58;96607.47;5042202;28;20229;-23
2023/08/06 05:40:43;;;;;;;1.33;1.23;;;;;;;24.08;63.44;96613.47;5047419;28;20228;-23
2023/08/06 05:43:10;;;;;;;1.30;1.20;;;;;;;24.08;63.30;96609.19;5036385;28;20236;-23
2023/08/06 05:45:36;;;;;;;1.20;1.20;;;;;;;24.07;63.14;96607.47;5043188;28;20643;-26
2023/08/06 05:48:03;;;;;;;1.10;1.10;;;;;;;24.08;63.47;96610.91;5046223;28;20217;-23
2023/08/06 05:50:30;;;;;;;1.07;1.07;;;;;;;24.07;63.57;96602.31;5046546;28;20193;-24
2023/08/06 05:52:56;;;;;;;1.10;1.10;;;;;;;24.08;63.30;96598.06;5042351;28;20218;-23
2023/08/06 05:55:27;;;;;;;1.10;1.10;;;;;;;24.08;63.27;96598.06;5048476;28;20205;-23
2023/08/06 05:57:53;;;;;;;1.20;1.20;;;;;;;24.08;63.42;96601.50;5042961;28;20276;-25
2023/08/06 06:00:21;;;;;;;1.10;1.10;;;;;;;24.08;63.27;96596.38;5049969;28;20656;-23
2023/08/06 06:02:47;;;;;;;1.40;1.30;;;;;;;24.08;63.17;96600.63;5050951;28;20303;-23
2023/08/06 06:05:14;;;;;;;1.10;1.10;;;;;;;24.08;63.50;96604.06;5045590;28;20201;-23
2023/08/06 06:07:41;;;;;;;1.50;1.40;;;;;;;24.09;63.29;96598.06;5049352;28;20229;-23
2023/08/06 06:10:07;;;;;;;1.00;1.00;;;;;;;24.09;63.22;96605.78;5047188;28;20236;-23
2023/08/06 06:12:34;;;;;;;1.10;1.10;;;;;;;24.09;63.06;96600.63;5048118;28;20217;-29
2023/08/06 06:15:01;;;;;;;1.70;1.60;;;;;;;24.09;62.28;96610.91;5050465;28;20283;-23
2023/08/06 06:17:27;;;;;;;1.90;1.80;;;;;;;24.09;61.56;96602.34;5048783;28;20521;-28
2023/08/06 06:19:54;;;;;;;2.47;2.27;;;;;;;24.07;60.95;96594.63;5041762;28;20198;-25
2023/08/06 06:22:21;;;;;;;2.40;2.20;;;;;;;24.07;60.24;96594.63;5047730;28;20271;-24
2023/08/06 06:24:47;;;;;;;2.40;1.90;;;;;;;24.08;60.59;96596.38;5046613;28;20274;-23
2023/08/06 06:27:14;;;;;;;2.33;2.13;;;;;;;24.06;59.97;96592.91;5044001;28;20248;-23
2023/08/06 06:29:40;;;;;;;2.40;2.20;;;;;;;24.07;60.21;96598.94;5049092;28;20205;-28
2023/08/06 06:32:07;;;;;;;2.90;2.30;;;;;;;24.04;60.00;96602.31;5047101;28;20201;-41
2023/08/06 06:34:34;;;;;;;2.97;2.57;;;;;;;24.02;59.86;96604.03;5043430;28;20280;-26
2023/08/06 06:37:00;;;;;;;3.70;2.40;;;;;;;24.02;59.90;96593.78;5051278;28;20787;-23
2023/08/06 06:39:27;;;;;;;7.50;2.30;;;;;;;24.02;60.18;96600.59;5046300;28;20384;-34
2023/08/06 06:41:53;;;;;;;3.30;2.73;;;;;;;24.02;60.36;96596.34;5047880;28;20236;-24
2023/08/06 06:44:21;;;;;;;4.87;2.57;;;;;;;24.02;60.84;96598.03;5066204;22;20307;-28
2023/08/06 06:46:47;;;;;;;2.87;2.10;;;;;;;24.02;61.24;96600.59;5052802;28;20232;-28
2023/08/06 06:49:14;;;;;;;5.73;2.33;;;;;;;24.03;61.42;96597.16;5050605;28;20204;-28
2023/08/06 06:51:40;;;;;;;4.40;2.40;;;;;;;24.03;61.83;96592.91;5050686;28;20203;-32
2023/08/06 06:54:07;;;;;;;4.17;2.20;;;;;;;24.03;62.17;96598.03;5055902;28;20744;-31
2023/08/06 06:56:33;;;;;;;7.30;2.50;;;;;;;24.03;61.96;96587.78;5053071;28;20197;-33
2023/08/06 06:59:00;;;;;;;4.57;2.30;;;;;;;24.04;61.89;96589.47;5050512;28;20205;-27
2023/08/06 07:01:27;;;;;;;10.63;2.80;;;;;;;24.03;62.18;96582.63;5046348;28;20197;-27
2023/08/06 07:03:53;;;;;;;4.90;2.37;;;;;;;24.04;61.72;96584.34;5052705;28;20228;-31
2023/08/06 07:06:20;;;;;;;5.17;2.37;;;;;;;24.05;61.38;96587.78;5059306;28;20319;-28
2023/08/06 07:08:47;;;;;;;4.83;2.40;;;;;;;24.03;61.70;96584.34;5056681;28;20254;-28
2023/08/06 07:11:13;;;;;;;5.10;2.40;;;;;;;24.02;61.39;96580.06;5032001;28;20212;-30
2023/08/06 07:13:40;;;;;;;4.53;2.30;;;;;;;23.99;61.54;96569.78;5041642;28;20267;-27
2023/08/06 07:16:06;;;;;;;2.60;2.40;;;;;;;24.01;61.39;96566.38;5043202;28;20720;-28
2023/08/06 07:18:37;;;;;;;2.77;2.30;;;;;;;23.62;61.26;96508.84;5043527;28;20224;-28
2023/08/06 07:21:03;;;;;;;3.30;2.60;;;;;;;24.01;61.30;96568.09;5044600;28;20215;-27
2023/08/06 07:23:30;;;;;;;3.70;2.20;;;;;;;24.00;61.42;96571.50;5041503;28;20225;-28
2023/08/06 07:25:56;;;;;;;5.03;2.27;;;;;;;23.99;61.34;96570.66;5043979;28;20208;-32
2023/08/06 07:28:23;;;;;;;2.93;2.43;;;;;;;23.99;61.05;96570.66;5046116;28;20232;-28
2023/08/06 07:30:50;;;;;;;7.10;2.03;;;;;;;23.99;61.70;96573.22;5044195;28;20205;-29
2023/08/06 07:33:16;;;;;;;2.77;2.20;;;;;;;23.99;61.32;96574.91;5047099;28;20785;-35
2023/08/06 07:35:43;;;;;;;2.47;2.27;;;;;;;23.98;61.45;96568.91;5045105;28;20205;-28
2023/08/06 07:38:10;;;;;;;4.73;2.33;;;;;;;23.98;60.72;96574.06;5046884;28;20284;-28
2023/08/06 07:40:37;;;;;;;2.20;2.00;;;;;;;23.98;60.06;96573.22;5045379;28;20210;-28
2023/08/06 07:43:03;;;;;;;2.37;2.17;;;;;;;23.98;59.13;96562.94;5049450;28;20713;-29
2023/08/06 07:45:37;;;;;;;4.13;2.77;;;;;;;23.97;59.66;96569.78;5055538;28;20201;-28
2023/08/06 07:48:04;;;;;;;2.33;2.00;;;;;;;23.96;59.24;96562.06;5068321;28;20219;-29
2023/08/06 07:50:31;;;;;;;2.47;2.27;;;;;;;23.98;59.82;96570.66;5050173;28;20209;-27
2023/08/06 07:52:57;;;;;;;2.33;2.10;;;;;;;23.96;60.21;96568.06;5042605;28;20224;-27
2023/08/06 07:55:24;;;;;;;2.07;1.93;;;;;;;23.96;60.62;96574.91;5045069;28;20212;-30
2023/08/06 07:57:50;;;;;;;3.23;2.30;;;;;;;23.94;60.73;96562.03;5012209;28;20274;-28
2023/08/06 08:00:17;;;;;;;2.27;2.03;;;;;;;23.95;61.08;96563.78;5044740;28;20280;-36
2023/08/06 08:02:44;;;;;;;4.23;2.20;;;;;;;23.94;61.30;96564.59;5044488;28;20204;-27
2023/08/06 08:05:10;;;;;;;2.47;2.10;;;;;;;23.94;61.36;96559.47;5043382;28;20208;-28
2023/08/06 08:07:37;;;;;;;2.80;2.13;;;;;;;23.94;61.62;96559.47;5044352;28;20229;-28
2023/08/06 08:10:05;;;;;;;3.47;2.20;;;;;;;23.94;61.67;96549.19;5044062;28;20213;-28
2023/08/06 08:12:31;;;;;;;2.53;2.33;;;;;;;23.95;61.42;96556.06;5044690;28;20208;-27
2023/08/06 08:14:58;;;;;;;2.17;1.97;;;;;;;23.96;61.38;96555.25;5043777;28;20212;-28
2023/08/06 08:17:24;;;;;;;2.73;2.20;;;;;;;23.97;61.65;96559.50;5044456;28;20205;-35
2023/08/06 08:19:51;;;;;;;2.20;2.00;;;;;;;23.97;61.71;96562.09;5043956;28;20211;-28
2023/08/06 08:22:18;;;;;;;6.90;2.23;;;;;;;23.98;61.69;96557.81;5045399;28;20210;-31
2023/08/06 08:24:44;;;;;;;3.03;2.20;;;;;;;23.99;61.76;96549.25;5043824;28;20228;-32
2023/08/06 08:27:11;;;;;;;2.30;1.97;;;;;;;23.98;61.72;96542.41;5045670;28;20217;-32
2023/08/06 08:29:37;;;;;;;4.00;2.17;;;;;;;23.99;61.64;96544.13;5046199;28;20258;-29
2023/08/06 08:32:04;;;;;;;2.33;2.07;;;;;;;23.98;61.77;96540.69;5043497;28;21343;-29
2023/08/06 08:34:31;;;;;;;2.27;2.00;;;;;;;24.00;61.59;96535.56;5044289;28;20339;-27
2023/08/06 08:36:58;;;;;;;2.73;2.17;;;;;;;24.00;61.83;96533.00;5044356;28;20232;-31
2023/08/06 08:39:25;;;;;;;5.20;2.10;;;;;;;24.01;61.93;96537.28;5043457;28;20205;-38
2023/08/06 08:41:51;;;;;;;2.30;2.10;;;;;;;23.99;61.67;96534.72;5044451;28;20218;-29
2023/08/06 08:44:18;;;;;;;2.67;2.10;;;;;;;24.00;61.72;96531.28;5008485;28;20229;-31
2023/08/06 08:46:45;;;;;;;2.50;2.30;;;;;;;24.01;61.84;96537.28;5028222;28;20738;-28
2023/08/06 08:49:12;;;;;;;3.87;1.73;;;;;;;24.01;61.91;96540.69;5044119;28;20616;-29
2023/08/06 08:51:39;;;;;;;1.90;1.80;;;;;;;24.01;62.23;96548.41;5048863;28;20254;-27
2023/08/06 08:54:07;;;;;;;2.20;2.00;;;;;;;24.01;61.80;96540.69;5044786;28;20256;-28
2023/08/06 08:56:33;;;;;;;2.00;1.80;;;;;;;24.01;61.89;96534.72;5057705;28;20193;-27
2023/08/06 08:59:00;;;;;;;3.17;2.00;;;;;;;24.00;61.92;96536.44;5055275;28;20634;-27
2023/08/06 09:01:28;;;;;;;2.27;1.83;;;;;;;24.02;62.22;96546.69;5047812;28;20258;-28
2023/08/06 09:03:55;;;;;;;5.53;2.00;;;;;;;24.02;62.04;96544.13;5036880;28;20722;-29
2023/08/06 09:06:21;;;;;;;2.20;1.80;;;;;;;24.03;62.32;96559.53;5025684;28;20193;-28
2023/08/06 09:09:02;;;;;;;1.60;1.50;;;;;;;24.03;62.12;96562.09;5037883;28;20299;-36
2023/08/06 09:11:31;;;;;;;1.83;1.73;;;;;;;23.95;61.99;96539.81;5041681;28;20204;-27
2023/08/06 09:13:57;;;;;;;1.90;1.80;;;;;;;24.02;61.99;96555.28;5043161;28;20262;-28
2023/08/06 09:16:24;;;;;;;2.73;2.20;;;;;;;24.04;61.84;96557.84;5056512;28;20201;-28
2023/08/06 09:18:51;;;;;;;2.40;1.90;;;;;;;24.04;62.01;96550.97;5042680;28;20283;-28
2023/08/06 09:21:18;;;;;;;3.00;1.90;;;;;;;24.04;62.29;96560.41;5057195;28;20287;-28
2023/08/06 09:23:44;;;;;;;6.60;2.10;;;;;;;24.04;62.34;96563.81;5051787;28;20225;-30
2023/08/06 09:26:12;;;;;;;4.07;1.90;;;;;;;24.04;62.20;96560.41;5056687;28;20267;-28
2023/08/06 09:28:43;;;;;;;2.33;1.83;;;;;;;24.04;62.19;96561.25;5052112;28;20756;-31
2023/08/06 09:31:10;;;;;;;5.47;2.53;;;;;;;24.03;62.02;96551.84;5058243;28;20204;-30
2023/08/06 09:33:37;;;;;;;2.77;1.80;;;;;;;24.02;62.22;96562.97;5051737;28;20227;-28
2023/08/06 09:36:09;;;;;;;2.63;2.00;;;;;;;24.03;62.17;96572.38;5053719;28;20201;-29
2023/08/06 09:38:40;;;;;;;3.93;2.10;;;;;;;24.04;62.45;96568.94;5054262;28;20275;-28
2023/08/06 09:41:07;;;;;;;2.23;1.93;;;;;;;24.04;62.20;96570.69;5056437;28;20211;-28
2023/08/06 09:43:41;;;;;;;4.73;2.30;;;;;;;24.03;62.26;96574.06;5050940;28;20308;-27
2023/08/06 09:46:13;;;;;;;4.27;2.30;;;;;;;24.03;62.29;96564.69;5050900;28;20662;-27
2023/08/06 09:48:40;;;;;;;4.93;2.20;;;;;;;24.02;62.38;96557.84;5044588;28;20217;-28
2023/08/06 09:51:08;;;;;;;5.83;2.30;;;;;;;24.04;62.60;96553.53;5031587;28;20197;-28
2023/08/06 09:53:35;;;;;;;3.27;2.20;;;;;;;23.99;62.33;96547.56;5053763;28;20273;-30
2023/08/06 09:56:02;;;;;;;4.27;1.90;;;;;;;24.06;62.69;96559.56;5024900;28;20205;-28
2023/08/06 09:58:30;;;;;;;3.07;2.20;;;;;;;24.06;62.74;96545.84;5051010;28;20199;-27
2023/08/06 10:00:57;;;;;;;9.37;2.20;;;;;;;24.06;62.34;96549.28;5041245;28;20209;-29
2023/08/06 10:03:24;;;;;;;6.03;2.40;;;;;;;24.07;62.39;96548.41;5027209;28;20239;-29
2023/08/06 10:05:51;;;;;;;3.23;2.33;;;;;;;24.07;62.38;96542.44;5034903;28;20201;-28
2023/08/06 10:08:18;;;;;;;5.47;2.33;;;;;;;24.07;62.76;96548.41;5037711;28;20227;-28
2023/08/06 10:10:44;;;;;;;3.37;2.10;;;;;;;24.07;62.52;96539.88;5035479;28;20243;-34
2023/08/06 10:13:11;;;;;;;3.50;1.93;;;;;;;24.08;62.53;96534.75;5027867;28;20306;-29
2023/08/06 10:15:38;;;;;;;2.17;1.93;;;;;;;24.08;63.00;96531.31;5050387;28;20208;-28
2023/08/06 10:18:04;;;;;;;5.10;2.20;;;;;;;24.05;62.87;96537.31;5055922;28;20674;-28
2023/08/06 10:20:34;;;;;;;3.20;2.13;;;;;;;24.05;62.94;96532.19;5017129;28;20674;-29
2023/08/06 10:23:02;;;;;;;2.47;2.10;;;;;;;24.06;63.16;96539.00;5062430;28;20649;-36
2023/08/06 10:25:33;;;;;;;4.17;2.10;;;;;;;24.06;63.18;96533.88;5057968;28;20579;-33
2023/08/06 10:28:00;;;;;;;3.43;2.10;;;;;;;24.06;63.45;96539.00;5047282;28;20319;-30
2023/08/06 10:30:30;;;;;;;3.50;2.20;;;;;;;24.06;63.16;96543.28;5060010;28;20297;-35
2023/08/06 10:33:03;;;;;;;3.27;2.10;;;;;;;24.07;63.08;96537.31;5055400;28;20228;-29
2023/08/06 10:35:53;;;;;;;2.90;1.83;;;;;;;24.07;62.99;96535.59;5059340;28;20604;-28
2023/08/06 10:38:31;;;;;;;4.60;2.03;;;;;;;24.08;63.26;96537.31;5056533;28;20283;-27
2023/08/06 10:40:58;;;;;;;2.27;2.00;;;;;;;24.08;62.95;96541.59;5041697;28;20648;-28
2023/08/06 10:43:35;;;;;;;3.13;2.03;;;;;;;24.07;63.09;96550.16;5044198;28;20872;-31
2023/08/06 10:46:02;;;;;;;2.63;1.80;;;;;;;24.07;62.93;96551.00;5044236;28;20209;-28
2023/08/06 10:48:32;;;;;;;3.47;1.97;;;;;;;24.04;63.24;96539.88;5050576;28;20312;-41
2023/08/06 10:50:59;;;;;;;1.93;1.70;;;;;;;24.06;62.93;96536.44;5046983;28;20213;-31
2023/08/06 10:53:26;;;;;;;2.47;1.87;;;;;;;24.07;63.26;96548.41;5049515;28;20219;-32
2023/08/06 10:55:53;;;;;;;2.83;1.90;;;;;;;24.07;63.28;96540.72;5047654;28;20240;-28
2023/08/06 10:58:19;;;;;;;3.90;1.93;;;;;;;24.07;62.89;96548.41;5053489;28;20745;-30
2023/08/06 11:00:46;;;;;;;3.13;2.07;;;;;;;24.07;63.36;96551.00;5056630;28;20235;-27
2023/08/06 11:03:12;;;;;;;2.53;1.90;;;;;;;24.08;62.94;96539.03;5061694;28;20224;-30
2023/08/06 11:05:39;;;;;;;3.37;1.87;;;;;;;24.07;62.89;96545.84;5052348;28;20200;-28
2023/08/06 11:08:06;;;;;;;2.20;2.00;;;;;;;24.08;63.37;96533.88;5058834;28;20220;-32
2023/08/06 11:10:33;;;;;;;4.30;2.00;;;;;;;24.09;63.12;96535.59;5042062;28;20262;-30
2023/08/06 11:13:03;;;;;;;2.40;2.00;;;;;;;24.09;63.51;96536.47;5058771;28;20232;-37
2023/08/06 11:15:30;;;;;;;4.50;1.80;;;;;;;24.07;63.30;96529.63;5051326;28;20201;-32
2023/08/06 11:17:56;;;;;;;3.80;1.80;;;;;;;24.07;63.04;96533.03;5026351;28;20208;-33
2023/08/06 11:20:23;;;;;;;2.63;1.80;;;;;;;24.09;63.21;96551.00;5041947;28;20204;-32
2023/08/06 11:22:50;;;;;;;4.10;1.77;;;;;;;24.09;63.14;96559.56;5036094;28;20233;-31
2023/08/06 11:25:19;;;;;;;4.97;2.03;;;;;;;24.10;63.53;96561.28;5033410;28;20290;-30
2023/08/06 11:27:46;;;;;;;2.53;1.70;;;;;;;24.11;63.24;96560.44;5030210;28;20220;-28
2023/08/06 11:30:12;;;;;;;3.07;1.83;;;;;;;24.12;63.26;96562.16;5055175;28;20247;-31
2023/08/06 11:32:47;;;;;;;3.67;1.60;;;;;;;24.13;63.58;96563.00;5058934;28;20209;-31
2023/08/06 11:35:15;;;;;;;2.20;2.00;;;;;;;24.14;63.37;96570.72;5049555;28;20200;-31